Lancaster, Kansas
Current Conditions -  °F | °C
As of 11:53 PM on Tuesday 25 Nov 2014 (Local Time) from KSTJ Reporting Station
Overcast Overcast  
Wind Chill:   Ceiling: 8000
Heat Index:   Visibility: 10mi
Dew Point: -5°   Wind: 13mph
Humidity: 53%   Direction: 170°S
Pressure: 29.95"   Gusts: NA
Location:  39.57°N, 95.3°W
Report Text: KSTJ 260553Z AUTO 17011KT 10SM OVC080 04/M05 A2995 RMK AO2 SLP148 T00391050 10039 20011 400561083 58025
Loading
Personal Weather Stations






























Interactive Weather Map New forecast layout! Learn more

10-Day Weather Forecast

Advertisements
Track Severe Weather on mobile